Aérodrome :
LOGIN :

S'inscrire | Disclaimer

   EN    FR    IT 

 










Légende :    VFR   VFR Marginal   IFR   IFR Intensif   IFR Très Intensif
Visi : 
Plafond : 
>= 8 km
>= 3000ft
5 à 8 km
1000 à 3000 ft
1500m à 5 km
500 à 1000 ft
800 à 1500m
200 à 500 ft
< 800m
< 200 ft
Symboles :   Orages  Brouillard  Fortes neiges  Fortes précipitations  Vent > 20 kt
SIGMETs :   Divers  Orages  Givrage  Turbulence  Onde Orograph.  Cendres Volcan.







- Altitude de l'aérodrome : 1084 ft
- Code IATA : EPL
- Voir les cartes d'approche


LFSG - Épinal-Mirecourt

DERNIER METAR :
  • 222300Z AUTO 19007KT 9999 OVC008 M02/M03 Q1000

METARs EXPIRÉS :
  • 222230Z AUTO 18007KT 9999 OVC011 M02/M03 Q1000
  • 222200Z AUTO 19006KT 9999 FEW010 BKN015 OVC024 M02/M03 Q1001
  • 222130Z AUTO 19005KT 6000 -SN FEW007 SCT016 OVC024 M02/M03 Q1001
  • 222100Z AUTO 19007KT 2800 SN BR FEW009 BKN016 BKN022 M02/M03 Q1001
  • 222030Z AUTO 18006KT 3200 SN BR BKN018 BKN025 OVC032 M02/M03 Q1001

TAF N/A
Pas de NOTAMs connus pour ce terrain.
1 SIGMET publié pour la FIR Reims (LFEE) :
 
Givrage fort avec pluie surfondue
LFEE SIGMET 1 VALID 221930/222300 LFPW
LFEE REIMS FIR/UIR SEV ICE (FZRA) FCST WI N4715 E00415 - N4830 E00530 - N4900 E00445 - N4930 E00600 - N4930 E00615 - N4715 E00515 - N4715 E00415 SFC/FL030 MOV E 15KT NC=



MET'MAP, la Météo Aéronautique d'un coup d'oeil ! - Copyright ORBIFLY Décembre 2007 - Disclaimer

ORBIFLY MET'MAP TEAM :

Programmation & Développement : Alexandra Zaïnal
Conception & Développement : Baudouin d'Aumeries
Co-Programmation & Développement : Marc-Olivier Méhu
Soutien technique & logistique : Manuel Goepfert

Contact : metmap@orbifly.com




SOURCES & CREDITS :

   NOAA